Rianapolis, Brazil
Current Conditions -  °F | °C
As of 12:00 PM on Friday 24 Oct 2014 (Local Time) from SBAN Reporting Station
Broken Clouds Broken Clouds  
Wind Chill: 81°   Ceiling: 10000
Heat Index: 81°   Visibility: 6mi
Dew Point: 61°   Wind: 6mph
Humidity: 51%   Direction: 60°ENE
Pressure: 30.15"   Gusts: NA
Location:  15.49°S, 49.46°W
Report Text: SBAN 241400Z 06005KT 9999 FEW035 BKN100 27/16 Q1021
Loading
Personal Weather Stations






























Interactive Weather Map
Tropical Storm Tracking
New forecast layout! Learn more

10-Day Weather Forecast

Advertisements
Track Severe Weather on mobile